Time;durP1;ratioP1;P1;durP2;ratioP2;P2;SDS_P1;SDS_P2;PMS_P1;PMS_P2;Temp;Humidity;BMP_temperature;BMP_pressure;BME280_temperature;BME280_humidity;BME280_pressure;Samples;Min_cycle;Max_cycle;Signal;HPM_P1;HPM_P2
2021/05/09 00:01:21;;;;;;;1.43;1.00;;;13.30;53.10;;;;;;4977488;28;20085;-80
2021/05/09 00:03:46;;;;;;;2.10;1.03;;;13.20;53.40;;;;;;5006091;28;20495;-81
2021/05/09 00:06:13;;;;;;;2.30;0.90;;;13.20;53.50;;;;;;4993870;28;20022;-81
2021/05/09 00:08:39;;;;;;;1.67;0.83;;;13.30;53.50;;;;;;4994299;28;20022;-81
2021/05/09 00:11:05;;;;;;;5.03;0.97;;;13.30;53.50;;;;;;5000966;28;20038;-81
2021/05/09 00:13:30;;;;;;;2.07;0.97;;;13.20;53.60;;;;;;4983395;28;20034;-81
2021/05/09 00:15:58;;;;;;;2.50;1.30;;;13.10;53.90;;;;;;4988179;28;20428;-81
2021/05/09 00:18:24;;;;;;;3.27;1.13;;;13.10;54.10;;;;;;5001881;28;20450;-81
2021/05/09 00:20:50;;;;;;;1.50;0.90;;;13.00;54.10;;;;;;5007994;28;20026;-80
2021/05/09 00:23:16;;;;;;;2.10;1.17;;;13.00;54.30;;;;;;4992697;28;20039;-81
2021/05/09 00:25:41;;;;;;;1.70;0.80;;;12.90;54.50;;;;;;4981016;28;20500;-81
2021/05/09 00:28:07;;;;;;;8.93;1.47;;;13.00;54.60;;;;;;4982628;28;20030;-81
2021/05/09 00:30:33;;;;;;;2.07;1.00;;;12.90;54.60;;;;;;4999986;28;20161;-81
2021/05/09 00:32:58;;;;;;;1.30;0.80;;;12.90;54.80;;;;;;4984052;28;20073;-80
2021/05/09 00:35:24;;;;;;;2.00;1.03;;;12.80;54.70;;;;;;4993699;28;20216;-81
2021/05/09 00:37:50;;;;;;;5.63;0.90;;;12.80;54.60;;;;;;5001970;28;20042;-80
2021/05/09 00:40:15;;;;;;;1.83;0.80;;;12.80;54.70;;;;;;4988822;28;20486;-80
2021/05/09 00:42:41;;;;;;;1.30;0.90;;;12.70;54.70;;;;;;5006276;28;20092;-81
2021/05/09 00:45:08;;;;;;;5.20;0.80;;;12.70;54.80;;;;;;4999706;28;20077;-80
2021/05/09 00:47:34;;;;;;;2.90;1.20;;;12.80;54.80;;;;;;4981774;28;21482;-80
2021/05/09 00:50:00;;;;;;;4.90;0.97;;;12.70;54.70;;;;;;4988813;28;20041;-81
2021/05/09 00:52:26;;;;;;;2.57;0.80;;;12.70;54.80;;;;;;4990668;28;20499;-81
2021/05/09 00:54:57;;;;;;;1.37;0.90;;;12.70;55.00;;;;;;5006911;28;20120;-80
2021/05/09 00:57:24;;;;;;;2.07;0.80;;;12.70;55.20;;;;;;4993630;28;20035;-81
2021/05/09 00:59:55;;;;;;;1.70;0.70;;;12.70;55.20;;;;;;4980740;28;20038;-81
2021/05/09 01:02:21;;;;;;;2.63;1.03;;;12.70;55.00;;;;;;4970572;28;20069;-81
2021/05/09 01:04:48;;;;;;;2.47;1.03;;;12.80;54.80;;;;;;4978040;28;20487;-81
2021/05/09 01:07:14;;;;;;;3.90;0.93;;;12.70;54.60;;;;;;5003082;28;20121;-81
2021/05/09 01:09:41;;;;;;;2.77;0.80;;;12.60;54.60;;;;;;4985259;28;20408;-81
2021/05/09 01:12:12;;;;;;;1.47;0.80;;;12.60;54.80;;;;;;4995010;28;20088;-81
2021/05/09 01:14:39;;;;;;;4.07;0.80;;;12.60;54.90;;;;;;5014921;28;20026;-81
2021/05/09 01:17:06;;;;;;;2.20;0.90;;;12.50;54.90;;;;;;4998297;28;20491;-81
2021/05/09 01:19:34;;;;;;;4.83;1.00;;;12.50;55.00;;;;;;4980972;28;20034;-81
2021/05/09 01:22:00;;;;;;;7.20;0.90;;;12.40;55.10;;;;;;4995846;28;20041;-81
2021/05/09 01:24:25;;;;;;;1.37;0.80;;;12.40;55.10;;;;;;4991718;28;20242;-81
2021/05/09 01:26:51;;;;;;;4.70;1.07;;;12.30;55.00;;;;;;4991484;28;20033;-81
2021/05/09 01:29:17;;;;;;;1.00;0.80;;;12.30;55.20;;;;;;4986087;28;20034;-81
2021/05/09 01:31:45;;;;;;;1.47;0.60;;;12.30;55.20;;;;;;4982233;28;20034;-81
2021/05/09 01:34:11;;;;;;;2.00;0.77;;;12.30;55.30;;;;;;4991487;28;20042;-81
2021/05/09 01:36:37;;;;;;;0.93;0.60;;;12.30;55.10;;;;;;4994448;28;20064;-80
2021/05/09 01:39:04;;;;;;;1.87;0.80;;;12.30;55.00;;;;;;4996690;28;20117;-81
2021/05/09 01:41:30;;;;;;;1.10;0.73;;;12.30;55.20;;;;;;4992943;28;20026;-81
2021/05/09 01:43:56;;;;;;;1.33;0.70;;;12.20;55.40;;;;;;5003976;28;20084;-81
2021/05/09 01:46:21;;;;;;;1.50;0.90;;;12.20;55.60;;;;;;5002087;28;20034;-81
2021/05/09 01:48:47;;;;;;;1.67;0.83;;;12.10;55.70;;;;;;4994593;28;20027;-81
2021/05/09 01:51:13;;;;;;;1.87;0.80;;;12.10;55.80;;;;;;5000942;28;20046;-81
2021/05/09 01:53:39;;;;;;;2.53;0.70;;;12.10;55.60;;;;;;4985404;28;20038;-81
2021/05/09 01:56:04;;;;;;;1.80;0.50;;;12.10;55.40;;;;;;4988137;28;20041;-80
2021/05/09 01:58:30;;;;;;;2.90;0.80;;;12.10;55.50;;;;;;4994702;28;20034;-81
2021/05/09 02:00:56;;;;;;;1.83;0.80;;;12.00;55.50;;;;;;4989111;28;20034;-80
2021/05/09 02:03:22;;;;;;;1.57;0.77;;;12.00;55.40;;;;;;4975261;28;20109;-80
2021/05/09 02:05:48;;;;;;;1.23;0.90;;;12.00;55.50;;;;;;4982350;28;20030;-81
2021/05/09 02:08:13;;;;;;;3.97;0.83;;;12.00;55.60;;;;;;4986646;28;20038;-82
2021/05/09 02:10:39;;;;;;;3.47;0.70;;;11.90;55.90;;;;;;4983132;28;20022;-82
2021/05/09 02:13:05;;;;;;;3.83;1.20;;;11.90;55.90;;;;;;4993199;28;20031;-82
2021/05/09 02:15:31;;;;;;;2.00;1.00;;;11.90;55.80;;;;;;5005199;28;20014;-81
2021/05/09 02:17:57;;;;;;;2.33;0.90;;;11.80;56.00;;;;;;4986320;28;20030;-81
2021/05/09 02:20:22;;;;;;;4.40;1.03;;;11.70;56.20;;;;;;4987997;28;20037;-81
2021/05/09 02:22:49;;;;;;;2.10;0.83;;;11.70;56.30;;;;;;4991870;28;20034;-81
2021/05/09 02:25:15;;;;;;;1.10;0.80;;;11.70;56.40;;;;;;5009191;28;20032;-81
2021/05/09 02:27:41;;;;;;;2.10;1.03;;;11.60;56.70;;;;;;5000227;28;20449;-82
2021/05/09 02:30:07;;;;;;;1.40;0.83;;;11.60;56.80;;;;;;4991917;28;20037;-81
2021/05/09 02:32:33;;;;;;;1.93;0.77;;;11.60;57.10;;;;;;5004735;28;20096;-82
2021/05/09 02:34:59;;;;;;;3.77;1.37;;;11.60;57.10;;;;;;4997653;28;20035;-81
2021/05/09 02:37:25;;;;;;;5.53;1.00;;;11.60;57.20;;;;;;4999868;28;20097;-81
2021/05/09 02:39:51;;;;;;;2.00;0.83;;;11.50;57.10;;;;;;4993853;28;20484;-80
2021/05/09 02:42:18;;;;;;;3.60;0.83;;;11.50;57.00;;;;;;4993299;28;20026;-80
2021/05/09 02:44:43;;;;;;;1.37;0.70;;;11.50;57.10;;;;;;4990643;28;20479;-81
2021/05/09 02:47:10;;;;;;;1.73;1.03;;;11.40;57.20;;;;;;4991881;28;20042;-80
2021/05/09 02:49:36;;;;;;;1.90;1.00;;;11.50;57.10;;;;;;4985794;28;20038;-80
2021/05/09 02:52:02;;;;;;;1.97;0.87;;;11.30;57.20;;;;;;5005310;28;20479;-80
2021/05/09 02:54:29;;;;;;;0.90;0.70;;;11.30;57.60;;;;;;4982154;28;20483;-80
2021/05/09 02:56:54;;;;;;;3.17;1.40;;;11.20;57.70;;;;;;4995879;28;20067;-80
2021/05/09 02:59:20;;;;;;;1.33;0.93;;;11.20;57.90;;;;;;5002019;28;20196;-80
2021/05/09 03:01:46;;;;;;;1.97;1.23;;;11.20;58.10;;;;;;4982235;28;20094;-80
2021/05/09 03:04:12;;;;;;;5.90;1.90;;;11.20;58.20;;;;;;4997948;28;20026;-80
2021/05/09 03:06:39;;;;;;;1.90;1.00;;;11.30;58.00;;;;;;4977319;28;20027;-80
2021/05/09 03:09:05;;;;;;;3.27;1.00;;;11.30;57.80;;;;;;4984869;28;20054;-81
2021/05/09 03:11:32;;;;;;;2.20;0.87;;;11.30;57.60;;;;;;4997105;28;20030;-80
2021/05/09 03:14:09;;;;;;;1.60;0.70;;;11.30;57.80;;;;;;5004053;28;20042;-80
2021/05/09 03:16:35;;;;;;;2.97;0.90;;;11.20;58.10;;;;;;4998808;28;20037;-80
2021/05/09 03:19:00;;;;;;;1.70;1.00;;;11.10;58.10;;;;;;4992382;28;20031;-80
2021/05/09 03:21:26;;;;;;;2.77;0.90;;;11.10;58.20;;;;;;5007128;28;20086;-80
2021/05/09 03:23:56;;;;;;;2.30;0.87;;;11.10;58.20;;;;;;4999866;28;20058;-80
2021/05/09 03:26:22;;;;;;;1.83;1.30;;;11.00;58.20;;;;;;4994214;28;20501;-81
2021/05/09 03:28:47;;;;;;;1.70;1.13;;;11.10;58.10;;;;;;5013336;28;20026;-80
2021/05/09 03:31:13;;;;;;;1.63;1.03;;;11.20;58.00;;;;;;4999689;28;20456;-80
2021/05/09 03:34:26;;;;;;;3.13;1.60;;;11.10;58.20;;;;;;5003037;28;20128;-80
2021/05/09 03:36:51;;;;;;;2.90;1.10;;;11.10;58.60;;;;;;5004284;28;20034;-80
2021/05/09 03:39:17;;;;;;;5.03;1.13;;;11.00;58.50;;;;;;4994939;28;20085;-80
2021/05/09 03:41:44;;;;;;;1.63;1.07;;;11.00;58.70;;;;;;4997837;28;20479;-80
2021/05/09 03:44:09;;;;;;;2.37;0.83;;;10.90;58.80;;;;;;4993977;28;20072;-80
2021/05/09 03:46:38;;;;;;;4.43;1.00;;;10.90;58.70;;;;;;4990209;28;20535;-80
2021/05/09 03:49:03;;;;;;;3.33;1.17;;;10.90;58.70;;;;;;4973620;28;20434;-80
2021/05/09 03:51:29;;;;;;;1.47;0.97;;;10.80;58.90;;;;;;4990334;28;20031;-80
2021/05/09 03:53:55;;;;;;;4.13;1.07;;;10.80;59.00;;;;;;4978529;28;20439;-80
2021/05/09 03:56:22;;;;;;;1.93;1.07;;;10.80;59.10;;;;;;4989882;28;20031;-80
2021/05/09 03:58:51;;;;;;;3.27;0.93;;;10.80;59.30;;;;;;4977257;28;20039;-80
2021/05/09 04:01:22;;;;;;;1.80;1.00;;;10.80;59.30;;;;;;4996938;28;20029;-80
2021/05/09 04:03:49;;;;;;;2.10;1.00;;;10.80;59.20;;;;;;4988754;28;20034;-80
2021/05/09 04:06:15;;;;;;;2.23;1.17;;;10.80;59.10;;;;;;4984883;28;20381;-80
2021/05/09 04:08:41;;;;;;;2.23;1.10;;;10.80;58.90;;;;;;4982440;28;20061;-80
2021/05/09 04:11:10;;;;;;;3.00;1.00;;;10.80;59.10;;;;;;4991927;28;20252;-80
2021/05/09 04:13:59;;;;;;;3.90;1.13;;;10.80;59.10;;;;;;4990796;28;20030;-81
2021/05/09 04:16:31;;;;;;;4.93;1.17;;;10.80;59.10;;;;;;4996721;28;20484;-80
2021/05/09 04:18:57;;;;;;;2.00;0.93;;;10.70;59.10;;;;;;5001348;28;20498;-80
2021/05/09 04:21:23;;;;;;;5.10;1.40;;;10.70;59.20;;;;;;4987006;28;20033;-80
2021/05/09 04:23:53;;;;;;;2.63;1.50;;;10.70;59.30;;;;;;4990635;28;20077;-80
2021/05/09 04:26:18;;;;;;;3.23;1.47;;;10.70;59.30;;;;;;4969024;28;20554;-80
2021/05/09 04:28:44;;;;;;;4.73;1.50;;;10.70;59.40;;;;;;4987980;28;20113;-79
2021/05/09 04:31:10;;;;;;;2.47;1.37;;;10.70;59.30;;;;;;4991332;28;20030;-79
2021/05/09 04:33:36;;;;;;;3.20;1.23;;;10.70;59.30;;;;;;4992960;28;20038;-80
2021/05/09 04:36:02;;;;;;;3.83;1.30;;;10.70;59.20;;;;;;4993258;28;20034;-80
2021/05/09 04:38:27;;;;;;;4.10;1.47;;;10.60;59.10;;;;;;4989215;28;20078;-80
2021/05/09 04:40:53;;;;;;;4.70;1.27;;;10.60;59.30;;;;;;4972841;28;20031;-80
2021/05/09 04:43:19;;;;;;;7.83;1.43;;;10.70;59.30;;;;;;4990452;28;20388;-80
2021/05/09 04:45:50;;;;;;;2.17;1.00;;;10.80;59.10;;;;;;5003953;28;20026;-80
2021/05/09 04:48:19;;;;;;;4.83;1.13;;;10.80;59.20;;;;;;5008946;28;20042;-80
2021/05/09 04:50:45;;;;;;;4.20;1.43;;;10.70;59.20;;;;;;4992453;28;20054;-80
2021/05/09 04:53:32;;;;;;;1.80;1.13;;;10.70;59.30;;;;;;4983400;28;20051;-80
2021/05/09 04:56:01;;;;;;;2.23;1.10;;;10.70;59.50;;;;;;4996071;28;20022;-80
2021/05/09 04:58:28;;;;;;;2.30;1.30;;;10.70;59.40;;;;;;4977730;28;20050;-80
2021/05/09 05:00:56;;;;;;;2.13;1.30;;;10.60;59.40;;;;;;4993316;28;20027;-80
2021/05/09 05:03:22;;;;;;;3.03;1.30;;;10.60;59.70;;;;;;4980122;28;20380;-80
2021/05/09 05:05:48;;;;;;;4.80;1.63;;;10.70;60.00;;;;;;4992241;28;20018;-80
2021/05/09 05:08:14;;;;;;;3.67;1.40;;;10.70;60.00;;;;;;4992537;28;20031;-80
2021/05/09 05:10:40;;;;;;;2.10;1.00;;;10.70;60.10;;;;;;5004337;28;20422;-80
2021/05/09 05:13:38;;;;;;;3.13;1.43;;;10.70;60.00;;;;;;4984181;28;20030;-81
2021/05/09 05:16:06;;;;;;;2.63;1.50;;;10.80;59.90;;;;;;4989050;28;20018;-80
2021/05/09 05:18:33;;;;;;;4.10;1.53;;;10.80;59.70;;;;;;4997617;28;20044;-79
2021/05/09 05:21:07;;;;;;;4.60;1.60;;;10.80;59.70;;;;;;4990447;28;20034;-82
2021/05/09 05:23:37;;;;;;;3.10;1.60;;;10.80;60.00;;;;;;4999666;28;20034;-81
2021/05/09 05:26:04;;;;;;;3.87;2.03;;;10.80;60.40;;;;;;5002313;28;20030;-82
2021/05/09 05:28:30;;;;;;;4.30;1.80;;;10.80;60.60;;;;;;4996442;28;20354;-79
2021/05/09 05:30:55;;;;;;;8.40;2.27;;;10.90;60.50;;;;;;5002891;28;20121;-79
2021/05/09 05:33:30;;;;;;;3.00;1.87;;;10.90;60.60;;;;;;4990914;28;20053;-79
2021/05/09 05:35:57;;;;;;;2.23;1.50;;;10.90;60.70;;;;;;4993864;28;20125;-79
2021/05/09 05:38:24;;;;;;;3.43;1.80;;;10.90;60.60;;;;;;4989986;28;20042;-82
2021/05/09 05:41:30;;;;;;;2.27;1.70;;;11.00;60.60;;;;;;4980983;28;20084;-82
2021/05/09 05:43:56;;;;;;;3.13;1.90;;;11.00;60.60;;;;;;4997942;28;20057;-81
2021/05/09 05:46:22;;;;;;;3.50;1.83;;;11.00;60.30;;;;;;4999766;28;20045;-80
2021/05/09 05:48:47;;;;;;;4.20;1.77;;;11.10;60.40;;;;;;4999615;28;20034;-80
2021/05/09 05:51:13;;;;;;;4.27;2.33;;;11.00;60.40;;;;;;4998106;28;20030;-80
2021/05/09 05:53:39;;;;;;;4.67;2.13;;;11.10;60.60;;;;;;5006035;28;20025;-80
2021/05/09 05:56:04;;;;;;;3.23;2.23;;;11.10;60.70;;;;;;4991821;28;20484;-80
2021/05/09 05:58:33;;;;;;;6.83;1.97;;;11.20;60.60;;;;;;4996467;28;20029;-81
2021/05/09 06:01:03;;;;;;;6.00;2.17;;;11.30;60.50;;;;;;5002629;28;20504;-81
2021/05/09 06:03:37;;;;;;;5.00;2.93;;;11.30;60.80;;;;;;5005437;28;20050;-80
2021/05/09 06:06:02;;;;;;;6.87;3.20;;;11.30;61.00;;;;;;4992528;28;20102;-80
2021/05/09 06:08:28;;;;;;;7.80;4.57;;;11.40;61.00;;;;;;4990018;28;20145;-80
2021/05/09 06:11:06;;;;;;;12.37;4.57;;;11.40;61.60;;;;;;4999094;28;20026;-81
2021/05/09 06:13:33;;;;;;;9.20;4.57;;;11.40;60.90;;;;;;4996027;28;20034;-80
2021/05/09 06:15:59;;;;;;;11.97;4.57;;;11.50;60.80;;;;;;4985888;28;20029;-81
2021/05/09 06:18:25;;;;;;;8.60;3.80;;;11.50;60.80;;;;;;4986714;28;20023;-81
2021/05/09 06:20:51;;;;;;;7.23;4.57;;;11.60;60.80;;;;;;4988717;28;20030;-81
2021/05/09 06:23:22;;;;;;;6.30;2.90;;;11.60;60.60;;;;;;5002821;28;20030;-81
2021/05/09 06:25:48;;;;;;;5.43;3.20;;;11.60;60.60;;;;;;5001755;28;20022;-81
2021/05/09 06:28:14;;;;;;;7.50;2.70;;;11.70;60.40;;;;;;4994528;28;20029;-81
2021/05/09 06:30:39;;;;;;;5.00;2.80;;;11.80;60.30;;;;;;4994594;28;20514;-81
2021/05/09 06:33:05;;;;;;;5.00;2.23;;;11.80;60.20;;;;;;4986676;28;20398;-81
2021/05/09 06:35:36;;;;;;;4.77;1.93;;;11.90;60.10;;;;;;4993046;28;20113;-81
2021/05/09 06:38:02;;;;;;;3.00;1.90;;;12.00;59.90;;;;;;4991907;28;20051;-81
2021/05/09 06:40:28;;;;;;;4.47;1.60;;;12.10;59.50;;;;;;4992597;28;20408;-81
2021/05/09 06:42:55;;;;;;;2.90;1.63;;;12.20;59.20;;;;;;4988730;28;20022;-81
2021/05/09 06:45:26;;;;;;;4.07;1.70;;;12.20;59.00;;;;;;4989760;28;20022;-81
2021/05/09 06:47:52;;;;;;;4.80;2.57;;;12.40;59.00;;;;;;4998120;28;20321;-81
2021/05/09 06:50:17;;;;;;;3.63;1.70;;;12.40;58.80;;;;;;4989793;28;20096;-81
2021/05/09 06:52:43;;;;;;;2.37;1.67;;;12.50;58.80;;;;;;4986677;28;20027;-81
2021/05/09 06:55:11;;;;;;;2.13;1.17;;;12.60;58.80;;;;;;4992425;28;20043;-81
2021/05/09 06:57:38;;;;;;;2.13;0.80;;;12.70;58.60;;;;;;4990172;28;20042;-81
2021/05/09 07:00:06;;;;;;;1.77;1.00;;;12.90;58.30;;;;;;5000348;28;20030;-81
2021/05/09 07:02:35;;;;;;;2.00;0.80;;;13.10;57.00;;;;;;4992159;28;20019;-81
2021/05/09 07:05:20;;;;;;;1.73;0.93;;;13.20;56.40;;;;;;4986297;28;20779;-81
2021/05/09 07:07:50;;;;;;;1.30;0.80;;;13.40;56.20;;;;;;5004791;28;20050;-81
2021/05/09 07:10:19;;;;;;;1.75;0.90;;;13.60;55.80;;;;;;4985583;28;20816;-81
2021/05/09 07:12:45;;;;;;;7.80;1.20;;;13.80;55.40;;;;;;4980789;28;20403;-81
2021/05/09 07:15:13;;;;;;;1.27;0.97;;;14.00;55.30;;;;;;4989970;28;20023;-81
2021/05/09 07:17:40;;;;;;;2.27;1.10;;;14.10;55.10;;;;;;5001301;28;20518;-81
2021/05/09 07:20:07;;;;;;;1.73;0.60;;;14.30;54.90;;;;;;5001294;28;20039;-82
2021/05/09 07:22:38;;;;;;;2.07;0.80;;;14.50;54.60;;;;;;4990063;28;20396;-81
2021/05/09 07:25:10;;;;;;;1.27;0.70;;;14.60;54.10;;;;;;4993140;28;20025;-81
2021/05/09 07:27:35;;;;;;;1.55;1.00;;;14.80;53.10;;;;;;4989004;28;20463;-81
2021/05/09 07:30:03;;;;;;;0.70;0.53;;;15.00;52.10;;;;;;4978815;28;20058;-81
2021/05/09 07:32:28;;;;;;;2.70;1.07;;;15.30;51.60;;;;;;4992323;28;20105;-82
2021/05/09 07:34:54;;;;;;;1.63;0.80;;;15.50;51.30;;;;;;4988747;28;20057;-82
2021/05/09 07:37:20;;;;;;;1.10;0.60;;;15.60;51.10;;;;;;4998256;28;20034;-81
2021/05/09 07:39:45;;;;;;;1.03;0.73;;;15.80;51.00;;;;;;4988124;28;20081;-82
2021/05/09 07:42:11;;;;;;;2.73;0.93;;;16.00;50.60;;;;;;4986300;28;20069;-82
2021/05/09 07:44:44;;;;;;;1.20;0.50;;;16.20;49.40;;;;;;4998313;28;20027;-82
2021/05/09 07:47:11;;;;;;;1.53;0.60;;;16.40;48.70;;;;;;4977943;28;20033;-82
2021/05/09 07:49:37;;;;;;;1.60;0.80;;;16.60;48.20;;;;;;4987745;28;20026;-82
2021/05/09 07:52:04;;;;;;;1.67;0.70;;;16.60;47.80;;;;;;4999392;28;20034;-82
2021/05/09 07:54:30;;;;;;;2.33;0.95;;;16.80;47.90;;;;;;4993230;28;20048;-82
2021/05/09 07:56:56;;;;;;;5.47;1.20;;;16.90;47.50;;;;;;4977125;28;20495;-82
2021/05/09 07:59:22;;;;;;;1.80;0.75;;;17.10;47.10;;;;;;4981681;28;20051;-82
2021/05/09 08:01:47;;;;;;;0.85;0.60;;;17.30;47.40;;;;;;4975395;28;20049;-80
2021/05/09 08:04:13;;;;;;;1.30;0.80;;;17.50;47.40;;;;;;4990120;28;20023;-80
2021/05/09 08:06:42;;;;;;;3.30;0.90;;;17.70;46.50;;;;;;5001364;28;20037;-80
2021/05/09 08:09:07;;;;;;;1.38;0.80;;;17.90;46.20;;;;;;5000178;28;20491;-80
2021/05/09 08:11:33;;;;;;;4.88;0.85;;;18.10;45.30;;;;;;4974271;28;20046;-79
2021/05/09 08:13:59;;;;;;;1.92;0.70;;;18.30;45.20;;;;;;4972727;28;20035;-80
2021/05/09 08:16:26;;;;;;;2.95;0.75;;;18.50;44.80;;;;;;4978253;28;22082;-79
2021/05/09 08:18:51;;;;;;;0.98;0.65;;;18.70;44.00;;;;;;4988209;28;20533;-79
2021/05/09 08:21:17;;;;;;;5.05;0.90;;;18.80;43.40;;;;;;4990489;28;20023;-80
2021/05/09 08:23:44;;;;;;;1.83;0.85;;;19.00;43.70;;;;;;4990795;28;20037;-80
2021/05/09 08:26:11;;;;;;;2.30;0.90;;;19.10;43.20;;;;;;4993274;28;20018;-80
2021/05/09 08:28:37;;;;;;;1.63;0.73;;;19.20;42.70;;;;;;4999975;28;20121;-80
2021/05/09 08:31:04;;;;;;;0.93;0.60;;;19.30;42.50;;;;;;4988055;28;20105;-80
2021/05/09 08:33:29;;;;;;;2.05;0.85;;;19.50;42.20;;;;;;4988495;28;20026;-80
2021/05/09 08:35:55;;;;;;;4.63;0.90;;;19.60;42.30;;;;;;4974732;28;20154;-80
2021/05/09 08:38:23;;;;;;;1.75;0.50;;;19.80;42.30;;;;;;4991768;28;20073;-80
2021/05/09 08:40:49;;;;;;;1.48;0.82;;;19.80;41.50;;;;;;5009098;28;20034;-80
2021/05/09 08:43:16;;;;;;;2.58;0.80;;;19.80;41.00;;;;;;4996808;28;20050;-83
2021/05/09 08:45:41;;;;;;;2.22;0.80;;;19.90;41.10;;;;;;4973391;28;20031;-83
2021/05/09 08:48:14;;;;;;;4.65;0.98;;;19.90;41.00;;;;;;4978650;28;20034;-84
2021/05/09 08:50:40;;;;;;;;;;;20.00;41.60;;;;;;4979411;28;20057;-83
2021/05/09 08:53:06;;;;;;;3.88;0.90;;;20.10;41.80;;;;;;4998682;28;19913;-83
2021/05/09 08:55:32;;;;;;;1.80;0.50;;;20.10;42.30;;;;;;4988049;28;20078;-83
2021/05/09 08:57:58;;;;;;;0.60;0.40;;;20.20;42.10;;;;;;4992320;28;20034;-83
2021/05/09 09:00:36;;;;;;;3.03;0.50;;;20.50;40.80;;;;;;4999322;28;20037;-84
2021/05/09 09:03:03;;;;;;;1.52;0.60;;;20.60;39.10;;;;;;4999394;28;20036;-83
2021/05/09 09:05:43;;;;;;;0.82;0.45;;;20.50;38.80;;;;;;4980145;28;20031;-84
2021/05/09 09:08:10;;;;;;;2.25;0.80;;;20.70;39.00;;;;;;4989205;28;20109;-84
2021/05/09 09:10:51;;;;;;;0.88;0.60;;;20.80;38.90;;;;;;4993676;28;20108;-84
2021/05/09 09:13:21;;;;;;;2.67;0.68;;;21.00;38.60;;;;;;4985079;28;20033;-84
2021/05/09 09:15:50;;;;;;;3.28;0.65;;;21.10;38.50;;;;;;4994651;28;20026;-84
2021/05/09 09:18:28;;;;;;;1.63;0.70;;;21.30;38.50;;;;;;4993701;28;20394;-85
2021/05/09 09:20:54;;;;;;;2.28;0.80;;;21.40;38.40;;;;;;4992873;28;20392;-85
2021/05/09 09:23:20;;;;;;;0.95;0.70;;;21.50;38.50;;;;;;5003237;28;20017;-84
2021/05/09 09:25:45;;;;;;;0.98;0.77;;;21.60;38.10;;;;;;4987567;28;20033;-85
2021/05/09 09:28:11;;;;;;;7.47;1.27;;;21.70;38.20;;;;;;4996245;28;20485;-85
2021/05/09 09:30:54;;;;;;;0.68;0.43;;;21.80;38.30;;;;;;4991559;28;20077;-85
2021/05/09 09:33:21;;;;;;;0.50;0.43;;;21.90;37.80;;;;;;4990257;28;20030;-84
2021/05/09 09:35:50;;;;;;;1.95;0.60;;;22.00;37.70;;;;;;4982675;28;20034;-84
2021/05/09 09:38:29;;;;;;;1.63;0.60;;;22.00;37.20;;;;;;4997922;28;20118;-85
2021/05/09 09:41:12;;;;;;;2.78;0.50;;;22.00;37.00;;;;;;5003451;28;20092;-84
2021/05/09 09:43:39;;;;;;;0.85;0.55;;;22.30;36.30;;;;;;5001648;28;20034;-84
2021/05/09 09:46:23;;;;;;;0.95;0.60;;;22.20;36.10;;;;;;4983418;28;20551;-84
2021/05/09 09:48:48;;;;;;;0.85;0.50;;;22.30;35.80;;;;;;4982400;28;20062;-84
2021/05/09 09:51:14;;;;;;;1.02;0.60;;;22.40;35.50;;;;;;4992818;28;20035;-84
2021/05/09 09:53:44;;;;;;;2.10;0.70;;;22.50;36.00;;;;;;4975702;28;20033;-85
2021/05/09 09:56:20;;;;;;;1.95;0.60;;;22.70;35.60;;;;;;4998177;28;20022;-84
2021/05/09 09:58:53;;;;;;;2.08;0.80;;;22.80;35.50;;;;;;4983893;28;21894;-84
2021/05/09 10:01:24;;;;;;;1.35;0.80;;;22.90;36.10;;;;;;5006814;28;20030;-84
2021/05/09 10:03:51;;;;;;;5.57;0.88;;;23.00;35.60;;;;;;5001066;28;20577;-84
2021/05/09 10:06:17;;;;;;;1.42;0.40;;;23.00;36.00;;;;;;4991714;28;20049;-85
2021/05/09 10:08:44;;;;;;;3.67;0.50;;;22.90;35.40;;;;;;4988783;28;20022;-84
2021/05/09 10:11:10;;;;;;;2.17;1.08;;;23.10;35.90;;;;;;4997482;28;20052;-84
2021/05/09 10:13:36;;;;;;;2.22;0.82;;;23.30;35.80;;;;;;4997969;28;20120;-85
2021/05/09 10:16:03;;;;;;;1.95;0.50;;;23.50;35.20;;;;;;4992752;28;20073;-84
2021/05/09 10:18:30;;;;;;;1.73;0.57;;;23.50;35.40;;;;;;4989726;28;20045;-85
2021/05/09 10:20:56;;;;;;;0.70;0.50;;;23.60;35.90;;;;;;4984503;28;20038;-85
2021/05/09 10:23:22;;;;;;;1.40;0.60;;;23.80;36.20;;;;;;4998419;28;20078;-85
2021/05/09 10:25:56;;;;;;;5.05;0.77;;;23.80;36.20;;;;;;4981486;28;20027;-85
2021/05/09 10:28:23;;;;;;;3.08;0.95;;;24.00;35.60;;;;;;4995868;28;20073;-85
2021/05/09 10:30:54;;;;;;;1.20;0.60;;;24.10;35.80;;;;;;4993564;28;20487;-85
2021/05/09 10:33:39;;;;;;;4.35;0.93;;;24.20;36.10;;;;;;4999193;28;20533;-85
2021/05/09 10:36:06;;;;;;;1.13;0.40;;;24.30;36.30;;;;;;4974212;28;20614;-85
2021/05/09 10:39:09;;;;;;;2.13;0.63;;;24.40;35.30;;;;;;4992784;28;20053;-84
2021/05/09 10:41:55;;;;;;;1.20;0.75;;;24.50;34.50;;;;;;4994968;28;20030;-85
2021/05/09 10:44:41;;;;;;;0.63;0.60;;;24.60;35.00;;;;;;5001474;28;20089;-83
2021/05/09 10:47:32;;;;;;;1.98;0.93;;;24.70;34.30;;;;;;4995041;28;20025;-81
2021/05/09 10:50:24;;;;;;;2.40;1.10;;;24.70;34.10;;;;;;4993470;28;20034;-81
2021/05/09 10:52:51;;;;;;;5.38;1.30;;;24.80;34.40;;;;;;4986959;28;20286;-82
2021/05/09 10:56:02;;;;;;;4.18;1.80;;;24.80;33.70;;;;;;4999390;28;20741;-82
2021/05/09 10:58:47;;;;;;;1.10;0.75;;;25.00;33.70;;;;;;4989996;28;20035;-82
2021/05/09 11:01:20;;;;;;;1.48;0.50;;;25.20;32.90;;;;;;4994108;28;20380;-82
2021/05/09 11:03:52;;;;;;;0.52;0.40;;;25.30;32.60;;;;;;4991653;28;20022;-82
2021/05/09 11:06:27;;;;;;;2.60;0.60;;;25.30;32.60;;;;;;5007581;28;20022;-82
2021/05/09 11:09:08;;;;;;;1.10;0.40;;;25.50;32.00;;;;;;4991305;28;20084;-82
2021/05/09 11:11:35;;;;;;;1.30;0.77;;;25.50;31.50;;;;;;4989893;28;20027;-82
2021/05/09 11:14:05;;;;;;;0.82;0.57;;;25.50;31.40;;;;;;4996955;28;20388;-82
2021/05/09 11:16:41;;;;;;;0.93;0.60;;;25.60;31.40;;;;;;4988895;28;20080;-82
2021/05/09 11:19:15;;;;;;;3.05;0.60;;;25.60;31.00;;;;;;4986081;28;20547;-82
2021/05/09 11:21:49;;;;;;;0.98;0.52;;;25.70;30.20;;;;;;4990466;28;20384;-82
2021/05/09 11:24:25;;;;;;;0.55;0.45;;;25.70;29.80;;;;;;4995181;28;20374;-82
2021/05/09 11:26:53;;;;;;;1.00;0.50;;;25.70;29.70;;;;;;5001364;28;20077;-82
2021/05/09 11:29:20;;;;;;;3.17;0.60;;;25.70;30.00;;;;;;4997728;28;20122;-82
2021/05/09 11:31:50;;;;;;;1.23;0.47;;;25.80;30.00;;;;;;4984021;28;20034;-82
2021/05/09 11:34:17;;;;;;;0.55;0.50;;;25.80;29.70;;;;;;4995885;28;20019;-82
2021/05/09 11:36:46;;;;;;;1.15;0.30;;;25.90;29.80;;;;;;4998814;28;20058;-82
2021/05/09 11:39:12;;;;;;;1.25;0.50;;;26.10;30.40;;;;;;4991289;28;20069;-82
2021/05/09 11:42:01;;;;;;;1.58;0.40;;;26.30;30.00;;;;;;4991989;28;20022;-82
2021/05/09 11:44:28;;;;;;;0.65;0.50;;;26.50;29.80;;;;;;4998839;28;20034;-82
2021/05/09 11:46:55;;;;;;;1.83;0.90;;;26.60;29.60;;;;;;4997877;28;20022;-82
2021/05/09 11:49:25;;;;;;;1.10;0.68;;;26.60;29.00;;;;;;4987648;28;20041;-82
2021/05/09 11:51:56;;;;;;;1.38;0.40;;;26.60;29.30;;;;;;4994786;28;20398;-81
2021/05/09 11:54:24;;;;;;;0.60;0.40;;;26.70;29.50;;;;;;5000693;28;20034;-82
2021/05/09 11:56:54;;;;;;;2.65;0.50;;;26.80;29.30;;;;;;4998687;28;20030;-82
2021/05/09 11:59:32;;;;;;;1.38;0.40;;;26.90;29.30;;;;;;4995851;28;20026;-82
2021/05/09 12:01:59;;;;;;;1.20;0.60;;;27.00;29.10;;;;;;4988114;28;20085;-82
2021/05/09 12:04:31;;;;;;;1.45;0.80;;;27.10;28.90;;;;;;4984452;28;20023;-82
2021/05/09 12:07:01;;;;;;;0.60;0.40;;;27.20;28.90;;;;;;4984926;28;20050;-82
2021/05/09 12:09:28;;;;;;;0.70;0.40;;;27.20;28.90;;;;;;4998814;28;20041;-82
2021/05/09 12:11:55;;;;;;;1.10;0.70;;;27.30;28.90;;;;;;4993642;28;20037;-82
2021/05/09 12:14:23;;;;;;;0.90;0.50;;;27.30;29.20;;;;;;4991640;28;20030;-82
2021/05/09 12:16:49;;;;;;;1.92;0.80;;;27.30;29.10;;;;;;4995172;28;20038;-82
2021/05/09 12:19:15;;;;;;;4.75;1.10;;;27.40;29.20;;;;;;4997454;28;20026;-82
2021/05/09 12:22:02;;;;;;;1.90;0.50;;;27.50;28.70;;;;;;4995939;28;20389;-82
2021/05/09 12:24:28;;;;;;;2.60;0.98;;;27.60;28.80;;;;;;4986338;28;20051;-82
2021/05/09 12:26:59;;;;;;;3.75;0.98;;;27.60;29.10;;;;;;4996147;28;20487;-82
2021/05/09 12:29:25;;;;;;;2.90;1.02;;;27.70;29.10;;;;;;4992016;28;20034;-82
2021/05/09 12:31:51;;;;;;;1.23;0.50;;;27.70;29.10;;;;;;4991443;28;20088;-82
2021/05/09 12:34:26;;;;;;;0.60;0.50;;;27.70;29.10;;;;;;5008560;28;20037;-82
2021/05/09 12:37:10;;;;;;;1.80;0.50;;;27.70;29.30;;;;;;4990890;28;20513;-82
2021/05/09 12:39:36;;;;;;;1.50;0.50;;;27.70;29.50;;;;;;4992206;28;20054;-82
2021/05/09 12:42:04;;;;;;;3.65;0.90;;;27.70;29.20;;;;;;4990505;28;20066;-82
2021/05/09 12:44:30;;;;;;;1.70;0.60;;;27.80;29.10;;;;;;4997559;28;20026;-82
2021/05/09 12:46:56;;;;;;;3.35;0.40;;;27.80;28.50;;;;;;4989317;28;20026;-82
2021/05/09 12:49:23;;;;;;;0.35;0.35;;;27.70;28.50;;;;;;5006966;28;20476;-82
2021/05/09 12:51:52;;;;;;;0.80;0.52;;;27.60;28.50;;;;;;4990930;28;20026;-82
2021/05/09 12:54:44;;;;;;;0.80;0.50;;;27.60;28.60;;;;;;4993166;28;20471;-82
2021/05/09 12:57:16;;;;;;;0.70;0.50;;;27.60;29.00;;;;;;4992514;28;20097;-82